sensor_id;sensor_type;location;lat;lon;timestamp;P1;durP1;ratioP1;P2;durP2;ratioP2
21448;SDS011;10885;52.830;13.788;2023-09-19T00:00:57;1.80;;;1.20;;
21448;SDS011;10885;52.830;13.788;2023-09-19T00:06:00;5.82;;;1.30;;
21448;SDS011;10885;52.830;13.788;2023-09-19T00:11:03;4.00;;;1.70;;
21448;SDS011;10885;52.830;13.788;2023-09-19T00:16:11;2.55;;;1.40;;
21448;SDS011;10885;52.830;13.788;2023-09-19T00:21:14;2.58;;;1.52;;
21448;SDS011;10885;52.830;13.788;2023-09-19T00:26:17;3.67;;;1.20;;
21448;SDS011;10885;52.830;13.788;2023-09-19T00:31:22;3.83;;;1.40;;
21448;SDS011;10885;52.830;13.788;2023-09-19T00:36:25;2.42;;;1.33;;
21448;SDS011;10885;52.830;13.788;2023-09-19T00:41:28;2.25;;;1.20;;
21448;SDS011;10885;52.830;13.788;2023-09-19T00:46:32;2.83;;;1.30;;
21448;SDS011;10885;52.830;13.788;2023-09-19T00:51:35;3.15;;;1.73;;
21448;SDS011;10885;52.830;13.788;2023-09-19T00:56:38;2.28;;;1.40;;
21448;SDS011;10885;52.830;13.788;2023-09-19T01:01:42;3.42;;;1.40;;
21448;SDS011;10885;52.830;13.788;2023-09-19T01:06:48;2.53;;;1.60;;
21448;SDS011;10885;52.830;13.788;2023-09-19T01:11:58;4.25;;;1.52;;
21448;SDS011;10885;52.830;13.788;2023-09-19T01:17:09;7.97;;;1.60;;
21448;SDS011;10885;52.830;13.788;2023-09-19T01:22:26;2.55;;;1.38;;
21448;SDS011;10885;52.830;13.788;2023-09-19T01:33:14;2.78;;;1.50;;
21448;SDS011;10885;52.830;13.788;2023-09-19T01:38:17;2.00;;;1.40;;
21448;SDS011;10885;52.830;13.788;2023-09-19T01:43:30;2.70;;;1.55;;
21448;SDS011;10885;52.830;13.788;2023-09-19T01:54:01;2.80;;;1.20;;
21448;SDS011;10885;52.830;13.788;2023-09-19T01:59:10;3.53;;;1.50;;
21448;SDS011;10885;52.830;13.788;2023-09-19T02:09:21;3.25;;;1.40;;
21448;SDS011;10885;52.830;13.788;2023-09-19T02:14:23;2.42;;;1.35;;
21448;SDS011;10885;52.830;13.788;2023-09-19T02:19:26;2.25;;;1.30;;
21448;SDS011;10885;52.830;13.788;2023-09-19T02:24:29;3.08;;;1.35;;
21448;SDS011;10885;52.830;13.788;2023-09-19T02:29:31;3.85;;;1.40;;
21448;SDS011;10885;52.830;13.788;2023-09-19T02:34:37;1.83;;;1.27;;
21448;SDS011;10885;52.830;13.788;2023-09-19T02:39:41;3.20;;;1.23;;
21448;SDS011;10885;52.830;13.788;2023-09-19T02:44:47;4.22;;;1.40;;
21448;SDS011;10885;52.830;13.788;2023-09-19T02:49:50;2.60;;;1.20;;
21448;SDS011;10885;52.830;13.788;2023-09-19T02:54:53;5.80;;;1.48;;
21448;SDS011;10885;52.830;13.788;2023-09-19T02:59:56;4.38;;;1.40;;
21448;SDS011;10885;52.830;13.788;2023-09-19T03:04:59;2.80;;;1.60;;
21448;SDS011;10885;52.830;13.788;2023-09-19T03:10:02;2.45;;;1.58;;
21448;SDS011;10885;52.830;13.788;2023-09-19T03:15:06;1.55;;;1.42;;
21448;SDS011;10885;52.830;13.788;2023-09-19T03:20:11;4.00;;;1.40;;
21448;SDS011;10885;52.830;13.788;2023-09-19T03:25:25;2.83;;;1.60;;
21448;SDS011;10885;52.830;13.788;2023-09-19T03:30:28;1.98;;;1.40;;
21448;SDS011;10885;52.830;13.788;2023-09-19T03:35:31;4.22;;;1.30;;
21448;SDS011;10885;52.830;13.788;2023-09-19T03:40:35;6.72;;;1.80;;
21448;SDS011;10885;52.830;13.788;2023-09-19T03:45:43;2.25;;;1.25;;
21448;SDS011;10885;52.830;13.788;2023-09-19T03:50:46;1.92;;;1.33;;
21448;SDS011;10885;52.830;13.788;2023-09-19T03:55:50;2.90;;;1.10;;
21448;SDS011;10885;52.830;13.788;2023-09-19T04:00:57;2.35;;;1.30;;
21448;SDS011;10885;52.830;13.788;2023-09-19T04:06:02;4.20;;;1.23;;
21448;SDS011;10885;52.830;13.788;2023-09-19T04:11:05;1.15;;;1.00;;
21448;SDS011;10885;52.830;13.788;2023-09-19T04:16:13;2.30;;;1.40;;
21448;SDS011;10885;52.830;13.788;2023-09-19T04:21:16;5.13;;;1.50;;
21448;SDS011;10885;52.830;13.788;2023-09-19T04:26:19;4.53;;;1.05;;
21448;SDS011;10885;52.830;13.788;2023-09-19T04:31:21;2.78;;;1.08;;
21448;SDS011;10885;52.830;13.788;2023-09-19T04:36:27;1.95;;;1.35;;
21448;SDS011;10885;52.830;13.788;2023-09-19T04:41:37;1.70;;;1.30;;
21448;SDS011;10885;52.830;13.788;2023-09-19T04:46:44;1.90;;;1.35;;
21448;SDS011;10885;52.830;13.788;2023-09-19T04:51:48;0.95;;;0.85;;
21448;SDS011;10885;52.830;13.788;2023-09-19T04:56:51;2.28;;;1.42;;
21448;SDS011;10885;52.830;13.788;2023-09-19T05:01:53;3.20;;;1.27;;
21448;SDS011;10885;52.830;13.788;2023-09-19T05:06:56;3.13;;;1.67;;
21448;SDS011;10885;52.830;13.788;2023-09-19T05:11:59;2.13;;;1.25;;
21448;SDS011;10885;52.830;13.788;2023-09-19T05:17:03;2.53;;;1.42;;
21448;SDS011;10885;52.830;13.788;2023-09-19T05:22:06;2.40;;;1.05;;
21448;SDS011;10885;52.830;13.788;2023-09-19T05:27:09;3.03;;;1.20;;
21448;SDS011;10885;52.830;13.788;2023-09-19T05:32:12;1.30;;;1.02;;
21448;SDS011;10885;52.830;13.788;2023-09-19T05:37:15;2.78;;;1.30;;
21448;SDS011;10885;52.830;13.788;2023-09-19T05:42:18;3.33;;;1.42;;
21448;SDS011;10885;52.830;13.788;2023-09-19T05:47:21;1.80;;;1.38;;
21448;SDS011;10885;52.830;13.788;2023-09-19T05:52:24;5.30;;;1.52;;
21448;SDS011;10885;52.830;13.788;2023-09-19T05:57:27;2.45;;;1.45;;
21448;SDS011;10885;52.830;13.788;2023-09-19T06:02:31;2.60;;;1.30;;
21448;SDS011;10885;52.830;13.788;2023-09-19T06:07:35;2.05;;;1.23;;
21448;SDS011;10885;52.830;13.788;2023-09-19T06:12:39;1.10;;;1.00;;
21448;SDS011;10885;52.830;13.788;2023-09-19T06:17:52;4.63;;;1.60;;
21448;SDS011;10885;52.830;13.788;2023-09-19T06:23:02;5.20;;;1.50;;
21448;SDS011;10885;52.830;13.788;2023-09-19T06:28:05;1.95;;;1.55;;
21448;SDS011;10885;52.830;13.788;2023-09-19T06:33:13;3.60;;;1.40;;
21448;SDS011;10885;52.830;13.788;2023-09-19T06:38:20;1.67;;;1.20;;
21448;SDS011;10885;52.830;13.788;2023-09-19T06:43:26;2.95;;;1.40;;
21448;SDS011;10885;52.830;13.788;2023-09-19T06:48:28;2.33;;;1.55;;
21448;SDS011;10885;52.830;13.788;2023-09-19T06:53:38;1.98;;;1.42;;
21448;SDS011;10885;52.830;13.788;2023-09-19T06:58:43;2.97;;;1.75;;
21448;SDS011;10885;52.830;13.788;2023-09-19T07:03:46;1.95;;;1.63;;
21448;SDS011;10885;52.830;13.788;2023-09-19T07:08:48;2.65;;;1.60;;
21448;SDS011;10885;52.830;13.788;2023-09-19T07:13:52;1.52;;;1.38;;
21448;SDS011;10885;52.830;13.788;2023-09-19T07:18:55;2.63;;;1.73;;
21448;SDS011;10885;52.830;13.788;2023-09-19T07:24:01;3.35;;;1.25;;
21448;SDS011;10885;52.830;13.788;2023-09-19T07:29:05;2.50;;;1.40;;
21448;SDS011;10885;52.830;13.788;2023-09-19T07:34:08;3.55;;;1.70;;
21448;SDS011;10885;52.830;13.788;2023-09-19T07:39:12;3.08;;;1.55;;
21448;SDS011;10885;52.830;13.788;2023-09-19T07:44:24;3.30;;;1.23;;
21448;SDS011;10885;52.830;13.788;2023-09-19T07:49:27;2.38;;;1.50;;
21448;SDS011;10885;52.830;13.788;2023-09-19T07:54:31;5.15;;;2.60;;
21448;SDS011;10885;52.830;13.788;2023-09-19T07:59:37;3.03;;;1.77;;
21448;SDS011;10885;52.830;13.788;2023-09-19T08:04:44;4.60;;;1.60;;
21448;SDS011;10885;52.830;13.788;2023-09-19T08:09:51;4.18;;;1.80;;
21448;SDS011;10885;52.830;13.788;2023-09-19T08:14:54;2.90;;;1.45;;
21448;SDS011;10885;52.830;13.788;2023-09-19T08:19:57;2.22;;;1.50;;
21448;SDS011;10885;52.830;13.788;2023-09-19T08:25:00;2.90;;;1.40;;
21448;SDS011;10885;52.830;13.788;2023-09-19T08:30:04;5.18;;;1.90;;
21448;SDS011;10885;52.830;13.788;2023-09-19T08:35:11;4.07;;;1.98;;
21448;SDS011;10885;52.830;13.788;2023-09-19T08:40:14;2.67;;;1.60;;
21448;SDS011;10885;52.830;13.788;2023-09-19T08:45:17;3.42;;;1.55;;
21448;SDS011;10885;52.830;13.788;2023-09-19T08:50:27;2.17;;;1.00;;
21448;SDS011;10885;52.830;13.788;2023-09-19T08:55:31;3.50;;;1.35;;
21448;SDS011;10885;52.830;13.788;2023-09-19T09:00:35;4.60;;;1.67;;
21448;SDS011;10885;52.830;13.788;2023-09-19T09:05:39;5.50;;;1.45;;
21448;SDS011;10885;52.830;13.788;2023-09-19T09:10:46;2.67;;;1.60;;
21448;SDS011;10885;52.830;13.788;2023-09-19T09:15:48;3.50;;;1.77;;
21448;SDS011;10885;52.830;13.788;2023-09-19T09:20:53;3.38;;;1.60;;
21448;SDS011;10885;52.830;13.788;2023-09-19T09:25:58;3.20;;;1.77;;
21448;SDS011;10885;52.830;13.788;2023-09-19T09:31:05;4.80;;;1.40;;
21448;SDS011;10885;52.830;13.788;2023-09-19T09:36:12;2.88;;;1.67;;
21448;SDS011;10885;52.830;13.788;2023-09-19T09:41:16;4.68;;;1.92;;
21448;SDS011;10885;52.830;13.788;2023-09-19T09:46:29;4.00;;;2.08;;
21448;SDS011;10885;52.830;13.788;2023-09-19T09:57:11;2.78;;;1.90;;
21448;SDS011;10885;52.830;13.788;2023-09-19T10:02:26;2.83;;;1.80;;
21448;SDS011;10885;52.830;13.788;2023-09-19T10:07:38;4.47;;;2.00;;
21448;SDS011;10885;52.830;13.788;2023-09-19T10:12:46;4.20;;;1.52;;
21448;SDS011;10885;52.830;13.788;2023-09-19T10:17:50;4.10;;;1.90;;
21448;SDS011;10885;52.830;13.788;2023-09-19T10:23:01;2.75;;;1.70;;
21448;SDS011;10885;52.830;13.788;2023-09-19T10:28:12;5.32;;;2.00;;
21448;SDS011;10885;52.830;13.788;2023-09-19T10:33:20;3.13;;;1.80;;
21448;SDS011;10885;52.830;13.788;2023-09-19T10:38:25;3.75;;;2.00;;
21448;SDS011;10885;52.830;13.788;2023-09-19T10:43:32;4.95;;;2.20;;
21448;SDS011;10885;52.830;13.788;2023-09-19T10:48:38;6.18;;;2.30;;
21448;SDS011;10885;52.830;13.788;2023-09-19T10:59:06;3.00;;;1.73;;
21448;SDS011;10885;52.830;13.788;2023-09-19T11:04:34;4.82;;;1.88;;
21448;SDS011;10885;52.830;13.788;2023-09-19T11:14:55;3.70;;;1.70;;
21448;SDS011;10885;52.830;13.788;2023-09-19T11:30:38;6.90;;;2.08;;
21448;SDS011;10885;52.830;13.788;2023-09-19T11:35:58;7.82;;;2.25;;
21448;SDS011;10885;52.830;13.788;2023-09-19T11:46:22;4.32;;;2.05;;
21448;SDS011;10885;52.830;13.788;2023-09-19T11:51:28;2.35;;;1.73;;
21448;SDS011;10885;52.830;13.788;2023-09-19T11:56:45;5.43;;;1.70;;
21448;SDS011;10885;52.830;13.788;2023-09-19T12:01:53;5.00;;;2.03;;
21448;SDS011;10885;52.830;13.788;2023-09-19T12:07:00;8.10;;;2.38;;
21448;SDS011;10885;52.830;13.788;2023-09-19T12:12:03;6.95;;;2.28;;
21448;SDS011;10885;52.830;13.788;2023-09-19T12:17:06;4.13;;;2.10;;
21448;SDS011;10885;52.830;13.788;2023-09-19T12:22:09;7.82;;;2.40;;
21448;SDS011;10885;52.830;13.788;2023-09-19T12:27:12;4.60;;;1.80;;
21448;SDS011;10885;52.830;13.788;2023-09-19T12:32:15;5.63;;;1.63;;
21448;SDS011;10885;52.830;13.788;2023-09-19T12:37:20;3.88;;;2.05;;
21448;SDS011;10885;52.830;13.788;2023-09-19T12:42:32;2.92;;;1.50;;
21448;SDS011;10885;52.830;13.788;2023-09-19T12:47:40;3.50;;;1.95;;
21448;SDS011;10885;52.830;13.788;2023-09-19T12:53:03;5.80;;;1.50;;
21448;SDS011;10885;52.830;13.788;2023-09-19T12:58:13;3.85;;;1.60;;
21448;SDS011;10885;52.830;13.788;2023-09-19T13:03:26;4.15;;;1.67;;
21448;SDS011;10885;52.830;13.788;2023-09-19T13:08:35;4.85;;;1.75;;
21448;SDS011;10885;52.830;13.788;2023-09-19T13:19:34;4.70;;;2.00;;
21448;SDS011;10885;52.830;13.788;2023-09-19T13:24:37;4.43;;;1.20;;
21448;SDS011;10885;52.830;13.788;2023-09-19T13:29:43;2.50;;;1.38;;
21448;SDS011;10885;52.830;13.788;2023-09-19T13:34:50;5.85;;;1.50;;
21448;SDS011;10885;52.830;13.788;2023-09-19T13:39:53;6.50;;;1.35;;
21448;SDS011;10885;52.830;13.788;2023-09-19T13:44:56;2.40;;;1.10;;
21448;SDS011;10885;52.830;13.788;2023-09-19T13:49:59;3.38;;;1.70;;
21448;SDS011;10885;52.830;13.788;2023-09-19T13:55:04;2.25;;;1.25;;
21448;SDS011;10885;52.830;13.788;2023-09-19T14:00:09;3.40;;;1.38;;
21448;SDS011;10885;52.830;13.788;2023-09-19T14:05:15;2.88;;;1.23;;
21448;SDS011;10885;52.830;13.788;2023-09-19T14:10:19;3.60;;;1.45;;
21448;SDS011;10885;52.830;13.788;2023-09-19T14:15:22;2.65;;;1.23;;
21448;SDS011;10885;52.830;13.788;2023-09-19T14:20:31;2.92;;;1.27;;
21448;SDS011;10885;52.830;13.788;2023-09-19T14:25:34;2.30;;;1.48;;
21448;SDS011;10885;52.830;13.788;2023-09-19T14:30:37;2.95;;;1.25;;
21448;SDS011;10885;52.830;13.788;2023-09-19T14:35:40;3.13;;;1.30;;
21448;SDS011;10885;52.830;13.788;2023-09-19T14:40:43;3.40;;;1.20;;
21448;SDS011;10885;52.830;13.788;2023-09-19T14:45:46;3.97;;;1.50;;
21448;SDS011;10885;52.830;13.788;2023-09-19T14:50:49;3.15;;;1.40;;
21448;SDS011;10885;52.830;13.788;2023-09-19T14:55:53;2.47;;;1.20;;
21448;SDS011;10885;52.830;13.788;2023-09-19T15:01:07;1.20;;;1.00;;
21448;SDS011;10885;52.830;13.788;2023-09-19T15:06:12;3.60;;;1.33;;
21448;SDS011;10885;52.830;13.788;2023-09-19T15:11:19;6.50;;;1.73;;
21448;SDS011;10885;52.830;13.788;2023-09-19T15:16:22;4.85;;;1.40;;
21448;SDS011;10885;52.830;13.788;2023-09-19T15:21:25;2.15;;;1.20;;
21448;SDS011;10885;52.830;13.788;2023-09-19T15:26:28;4.18;;;1.20;;
21448;SDS011;10885;52.830;13.788;2023-09-19T15:31:30;4.47;;;1.52;;
21448;SDS011;10885;52.830;13.788;2023-09-19T15:36:36;4.25;;;1.30;;
21448;SDS011;10885;52.830;13.788;2023-09-19T15:41:42;2.55;;;1.35;;
21448;SDS011;10885;52.830;13.788;2023-09-19T15:46:47;3.58;;;1.50;;
21448;SDS011;10885;52.830;13.788;2023-09-19T15:51:50;4.45;;;1.48;;
21448;SDS011;10885;52.830;13.788;2023-09-19T15:56:53;2.38;;;1.30;;
21448;SDS011;10885;52.830;13.788;2023-09-19T16:01:57;4.82;;;1.80;;
21448;SDS011;10885;52.830;13.788;2023-09-19T16:07:03;3.47;;;1.45;;
21448;SDS011;10885;52.830;13.788;2023-09-19T16:12:09;3.50;;;1.40;;
21448;SDS011;10885;52.830;13.788;2023-09-19T16:17:13;3.97;;;1.30;;
21448;SDS011;10885;52.830;13.788;2023-09-19T16:22:16;5.90;;;1.92;;
21448;SDS011;10885;52.830;13.788;2023-09-19T16:27:19;5.28;;;1.60;;
21448;SDS011;10885;52.830;13.788;2023-09-19T16:32:23;5.18;;;1.58;;
21448;SDS011;10885;52.830;13.788;2023-09-19T16:37:26;2.40;;;1.38;;
21448;SDS011;10885;52.830;13.788;2023-09-19T16:42:31;3.15;;;1.40;;
21448;SDS011;10885;52.830;13.788;2023-09-19T16:47:43;3.23;;;1.13;;
21448;SDS011;10885;52.830;13.788;2023-09-19T16:52:46;2.72;;;1.10;;
21448;SDS011;10885;52.830;13.788;2023-09-19T16:57:49;4.97;;;1.35;;
21448;SDS011;10885;52.830;13.788;2023-09-19T17:02:52;2.17;;;1.42;;
21448;SDS011;10885;52.830;13.788;2023-09-19T17:07:58;2.67;;;1.40;;
21448;SDS011;10885;52.830;13.788;2023-09-19T17:13:03;4.32;;;1.10;;
21448;SDS011;10885;52.830;13.788;2023-09-19T17:18:13;1.75;;;1.23;;
21448;SDS011;10885;52.830;13.788;2023-09-19T17:23:18;4.20;;;1.48;;
21448;SDS011;10885;52.830;13.788;2023-09-19T17:28:20;3.90;;;1.63;;
21448;SDS011;10885;52.830;13.788;2023-09-19T17:33:24;3.97;;;1.60;;
21448;SDS011;10885;52.830;13.788;2023-09-19T17:38:28;2.95;;;2.13;;
21448;SDS011;10885;52.830;13.788;2023-09-19T17:43:31;8.27;;;6.80;;
21448;SDS011;10885;52.830;13.788;2023-09-19T17:48:39;7.85;;;4.57;;
21448;SDS011;10885;52.830;13.788;2023-09-19T17:53:48;4.90;;;3.15;;
21448;SDS011;10885;52.830;13.788;2023-09-19T17:58:54;4.35;;;2.00;;
21448;SDS011;10885;52.830;13.788;2023-09-19T18:03:57;7.82;;;4.40;;
21448;SDS011;10885;52.830;13.788;2023-09-19T18:09:02;3.58;;;2.80;;
21448;SDS011;10885;52.830;13.788;2023-09-19T18:14:08;5.72;;;1.85;;
21448;SDS011;10885;52.830;13.788;2023-09-19T18:19:12;3.50;;;2.00;;
21448;SDS011;10885;52.830;13.788;2023-09-19T18:24:18;3.63;;;1.52;;
21448;SDS011;10885;52.830;13.788;2023-09-19T18:29:20;3.90;;;2.40;;
21448;SDS011;10885;52.830;13.788;2023-09-19T18:34:23;5.15;;;2.65;;
21448;SDS011;10885;52.830;13.788;2023-09-19T18:39:26;5.38;;;4.78;;
21448;SDS011;10885;52.830;13.788;2023-09-19T18:44:29;7.07;;;4.82;;
21448;SDS011;10885;52.830;13.788;2023-09-19T18:49:31;3.70;;;2.55;;
21448;SDS011;10885;52.830;13.788;2023-09-19T18:54:36;3.63;;;2.05;;
21448;SDS011;10885;52.830;13.788;2023-09-19T18:59:41;5.35;;;1.88;;
21448;SDS011;10885;52.830;13.788;2023-09-19T19:04:43;3.60;;;2.00;;
21448;SDS011;10885;52.830;13.788;2023-09-19T19:09:46;4.35;;;1.52;;
21448;SDS011;10885;52.830;13.788;2023-09-19T19:14:49;5.13;;;1.60;;
21448;SDS011;10885;52.830;13.788;2023-09-19T19:19:52;5.22;;;1.70;;
21448;SDS011;10885;52.830;13.788;2023-09-19T19:24:54;3.40;;;1.63;;
21448;SDS011;10885;52.830;13.788;2023-09-19T19:29:58;4.55;;;1.52;;
21448;SDS011;10885;52.830;13.788;2023-09-19T19:35:01;6.38;;;2.03;;
21448;SDS011;10885;52.830;13.788;2023-09-19T19:40:07;5.05;;;1.67;;
21448;SDS011;10885;52.830;13.788;2023-09-19T19:45:11;2.33;;;1.38;;
21448;SDS011;10885;52.830;13.788;2023-09-19T19:50:13;3.67;;;1.98;;
21448;SDS011;10885;52.830;13.788;2023-09-19T19:55:16;4.57;;;2.03;;
21448;SDS011;10885;52.830;13.788;2023-09-19T20:00:20;3.70;;;1.75;;
21448;SDS011;10885;52.830;13.788;2023-09-19T20:05:25;3.67;;;1.80;;
21448;SDS011;10885;52.830;13.788;2023-09-19T20:10:27;4.00;;;1.70;;
21448;SDS011;10885;52.830;13.788;2023-09-19T20:15:33;3.50;;;1.65;;
21448;SDS011;10885;52.830;13.788;2023-09-19T20:20:37;3.08;;;1.55;;
21448;SDS011;10885;52.830;13.788;2023-09-19T20:25:40;4.80;;;1.92;;
21448;SDS011;10885;52.830;13.788;2023-09-19T20:30:42;5.07;;;2.15;;
21448;SDS011;10885;52.830;13.788;2023-09-19T20:35:46;4.28;;;1.50;;
21448;SDS011;10885;52.830;13.788;2023-09-19T20:40:49;5.93;;;1.85;;
21448;SDS011;10885;52.830;13.788;2023-09-19T20:45:52;2.15;;;1.27;;
21448;SDS011;10885;52.830;13.788;2023-09-19T20:51:04;3.60;;;1.50;;
21448;SDS011;10885;52.830;13.788;2023-09-19T20:56:09;3.58;;;1.52;;
21448;SDS011;10885;52.830;13.788;2023-09-19T21:01:13;3.10;;;1.60;;
21448;SDS011;10885;52.830;13.788;2023-09-19T21:06:16;3.38;;;1.70;;
21448;SDS011;10885;52.830;13.788;2023-09-19T21:11:19;3.97;;;1.67;;
21448;SDS011;10885;52.830;13.788;2023-09-19T21:16:24;5.68;;;1.70;;
21448;SDS011;10885;52.830;13.788;2023-09-19T21:21:28;4.13;;;1.67;;
21448;SDS011;10885;52.830;13.788;2023-09-19T21:26:33;2.58;;;1.48;;
21448;SDS011;10885;52.830;13.788;2023-09-19T21:31:35;2.28;;;1.33;;
21448;SDS011;10885;52.830;13.788;2023-09-19T21:36:38;4.32;;;1.52;;
21448;SDS011;10885;52.830;13.788;2023-09-19T21:41:41;2.33;;;1.40;;
21448;SDS011;10885;52.830;13.788;2023-09-19T21:46:44;5.10;;;2.00;;
21448;SDS011;10885;52.830;13.788;2023-09-19T21:51:46;5.88;;;1.70;;
21448;SDS011;10885;52.830;13.788;2023-09-19T21:56:49;5.18;;;1.90;;
21448;SDS011;10885;52.830;13.788;2023-09-19T22:01:52;4.50;;;1.48;;
21448;SDS011;10885;52.830;13.788;2023-09-19T22:07:03;4.22;;;1.60;;
21448;SDS011;10885;52.830;13.788;2023-09-19T22:12:06;3.63;;;1.95;;
21448;SDS011;10885;52.830;13.788;2023-09-19T22:17:09;4.50;;;1.83;;
21448;SDS011;10885;52.830;13.788;2023-09-19T22:22:15;2.22;;;1.70;;
21448;SDS011;10885;52.830;13.788;2023-09-19T22:27:19;4.18;;;1.63;;
21448;SDS011;10885;52.830;13.788;2023-09-19T22:32:22;3.10;;;1.65;;
21448;SDS011;10885;52.830;13.788;2023-09-19T22:37:25;2.72;;;1.35;;
21448;SDS011;10885;52.830;13.788;2023-09-19T22:42:30;4.53;;;1.65;;
21448;SDS011;10885;52.830;13.788;2023-09-19T22:47:35;6.13;;;1.75;;
21448;SDS011;10885;52.830;13.788;2023-09-19T22:52:39;3.95;;;1.77;;
21448;SDS011;10885;52.830;13.788;2023-09-19T22:57:52;3.20;;;1.40;;
21448;SDS011;10885;52.830;13.788;2023-09-19T23:02:56;4.82;;;1.60;;
21448;SDS011;10885;52.830;13.788;2023-09-19T23:08:00;5.90;;;1.73;;
21448;SDS011;10885;52.830;13.788;2023-09-19T23:13:03;2.42;;;1.40;;
21448;SDS011;10885;52.830;13.788;2023-09-19T23:18:06;2.67;;;1.90;;
21448;SDS011;10885;52.830;13.788;2023-09-19T23:23:12;2.75;;;1.35;;
21448;SDS011;10885;52.830;13.788;2023-09-19T23:28:18;4.50;;;1.40;;
21448;SDS011;10885;52.830;13.788;2023-09-19T23:33:21;5.22;;;1.92;;
21448;SDS011;10885;52.830;13.788;2023-09-19T23:38:24;3.80;;;1.73;;
21448;SDS011;10885;52.830;13.788;2023-09-19T23:43:27;3.50;;;1.48;;
21448;SDS011;10885;52.830;13.788;2023-09-19T23:48:34;3.13;;;1.40;;
21448;SDS011;10885;52.830;13.788;2023-09-19T23:53:43;4.50;;;1.17;;
21448;SDS011;10885;52.830;13.788;2023-09-19T23:58:45;3.55;;;1.60;;
